Karl Stefan Memorial Airport
KOFK : rendu visible

Aérodrome :











RETROUVEZ-NOUS SUR...

 
LOGIN :

S'inscrire | Disclaimer

   EN    FR    IT 

 









Légende :    VFR   VFR Marginal   IFR   IFR Intensif   IFR Très Intensif
Visi : 
Plafond : 
>= 8 km
>= 3000ft
5 à 8 km
1000 à 3000 ft
1500m à 5 km
500 à 1000 ft
800 à 1500m
200 à 500 ft
< 800m
< 200 ft
Symboles :   Orages  Brouillard  Fortes neiges  Fortes précipitations  Vent > 20 kt






- Altitude de l'aérodrome : 1573 ft


KOFK - Karl Stefan Memorial

DERNIER METAR :
  • 230256Z AUTO 00000KT 1/2SM RA FG VV004 01/01 A2983 RMK AO2 RAB34 SLP116 60000 T00060006 52009 PNO $

METARs EXPIRÉS :
  • 230156Z AUTO 27003KT 3/4SM BR VV003 01/00 A2983 RMK AO2 RAB32E33UPB33E43 SLP116 P0000 T00060000
  • 230056Z AUTO 22004KT 1/2SM FG BKN004 OVC009 01/00 A2981 RMK AO2 SLP107 T00060000
  • 230032Z AUTO 21005KT 3/4SM BR FEW003 OVC009 01/00 A2980 RMK AO2 T00060000
  • 230022Z AUTO 19004KT 3/4SM BR FEW002 OVC010 01/00 A2979 RMK AO2 T00110000

TAF KOFK
Valide du 23 à 00h jusqu'au 24 à 00h UTC


222325Z 2300/2324 22006KT 1/2SM -DZ FG OVC003
TEMPO 2305/2307 1SM -SN BR OVC004
FM230700 32007KT 1SM -SN BR OVC005
FM231300 33009KT 2SM -SN OVC008
FM231800 34011G20KT P6SM OVC008



MET'MAP, la Météo Aéronautique d'un coup d'oeil ! - Copyright ORBIFLY Décembre 2007 - Disclaimer

ORBIFLY MET'MAP TEAM :

Programmation & Développement : Alexandra Zaïnal
Sur une idée originale de : Baudouin d'Aumeries
Assistance à la programmation : Marc-Olivier Méhu
Soutien technique & logistique : Manuel Goepfert

Contact : metmap@orbifly.com




SOURCES & CREDITS :

   NOAA       Earth
Advisory